createdAt,value
2023-04-27T00:00:35.976Z,100742.00
2023-04-27T00:03:03.868Z,100740.25
2023-04-27T00:05:30.703Z,100742.00
2023-04-27T00:07:57.280Z,100736.66
2023-04-27T00:10:23.674Z,100736.59
2023-04-27T00:12:50.096Z,100733.91
2023-04-27T00:15:16.520Z,100724.97
2023-04-27T00:17:42.991Z,100731.19
2023-04-27T00:20:11.598Z,100734.75
2023-04-27T00:22:38.166Z,100732.09
2023-04-27T00:25:05.316Z,100726.72
2023-04-27T00:27:31.792Z,100724.00
2023-04-27T00:29:58.189Z,100731.13
2023-04-27T00:32:24.683Z,100732.88
2023-04-27T00:34:51.259Z,100732.00
2023-04-27T00:37:19.074Z,100732.03
2023-04-27T00:39:45.861Z,100726.69
2023-04-27T00:42:13.352Z,100727.59
2023-04-27T00:44:40.001Z,100729.34
2023-04-27T00:47:06.871Z,100723.09
2023-04-27T00:49:33.497Z,100730.19
2023-04-27T00:52:00.206Z,100726.59
2023-04-27T00:54:28.081Z,100731.91
2023-04-27T00:56:54.504Z,100728.28
2023-04-27T00:59:21.798Z,100733.63
2023-04-27T01:01:49.068Z,100739.88
2023-04-27T01:04:16.622Z,100739.03
2023-04-27T01:06:43.571Z,100742.59
2023-04-27T01:09:10.121Z,100734.66
2023-04-27T01:11:37.849Z,100740.03
2023-04-27T01:14:06.932Z,100740.09
2023-04-27T01:16:34.134Z,100747.28
2023-04-27T01:19:01.876Z,100744.63
2023-04-27T01:21:28.319Z,100745.56
2023-04-27T01:23:56.449Z,100745.53
2023-04-27T01:26:22.843Z,100744.66
2023-04-27T01:28:49.491Z,100750.00
2023-04-27T01:31:16.009Z,100746.44
2023-04-27T01:33:42.544Z,100747.34
2023-04-27T01:36:09.872Z,100747.34
2023-04-27T01:38:36.779Z,100749.13
2023-04-27T01:41:05.378Z,100751.75
2023-04-27T01:43:32.225Z,100759.75
2023-04-27T01:46:05.647Z,100758.84
2023-04-27T01:48:32.072Z,100761.50
2023-04-27T01:50:58.631Z,100759.72
2023-04-27T01:53:25.015Z,100761.44
2023-04-27T01:55:51.463Z,100754.34
2023-04-27T01:58:19.259Z,100764.13
2023-04-27T02:00:45.761Z,100759.63
2023-04-27T02:03:12.319Z,100758.69
2023-04-27T02:05:38.820Z,100763.13
2023-04-27T02:08:05.421Z,100756.00
2023-04-27T02:10:31.888Z,100763.09
2023-04-27T02:12:58.441Z,100760.38
2023-04-27T02:15:26.834Z,100763.00
2023-04-27T02:17:53.592Z,100767.44
2023-04-27T02:20:20.062Z,100767.41
2023-04-27T02:22:46.434Z,100772.66
2023-04-27T02:25:13.001Z,100774.34
2023-04-27T02:27:39.662Z,100770.72
2023-04-27T02:30:07.950Z,100779.63
2023-04-27T02:32:36.357Z,100778.72
2023-04-27T02:35:04.538Z,100776.09
2023-04-27T02:37:31.101Z,100784.97
2023-04-27T02:39:58.249Z,100784.97
2023-04-27T02:42:24.659Z,100784.06
2023-04-27T02:44:51.067Z,100789.41
2023-04-27T02:47:18.119Z,100785.81
2023-04-27T02:49:45.844Z,100784.06
2023-04-27T02:52:12.337Z,100784.06
2023-04-27T02:54:38.792Z,100780.44
2023-04-27T02:57:05.242Z,100792.00
2023-04-27T02:59:32.560Z,100791.09
2023-04-27T03:01:59.011Z,100792.88
2023-04-27T03:04:25.557Z,100791.97
2023-04-27T03:06:53.438Z,100794.56
2023-04-27T03:09:19.882Z,100800.78
2023-04-27T03:11:46.387Z,100803.47
2023-04-27T03:14:12.832Z,100799.88
2023-04-27T03:16:39.493Z,100806.00
2023-04-27T03:19:05.944Z,100814.00
2023-04-27T03:21:32.391Z,100813.09
2023-04-27T03:24:00.184Z,100816.66
2023-04-27T03:26:26.705Z,100821.09
2023-04-27T03:28:53.239Z,100814.00
2023-04-27T03:31:19.676Z,100821.09
2023-04-27T03:33:46.089Z,100806.00
2023-04-27T03:36:12.522Z,100807.81
2023-04-27T03:38:41.403Z,100814.91
2023-04-27T03:41:09.173Z,100819.34
2023-04-27T03:43:35.595Z,100816.72
2023-04-27T03:46:02.782Z,100817.59
2023-04-27T03:48:29.271Z,100820.25
2023-04-27T03:50:55.774Z,100823.81
2023-04-27T03:53:22.217Z,100827.41
2023-04-27T03:55:49.584Z,100828.25
2023-04-27T03:58:17.756Z,100829.19
2023-04-27T04:01:02.415Z,100838.16
2023-04-27T04:03:29.132Z,100844.41
2023-04-27T04:05:55.653Z,100848.03
2023-04-27T04:08:22.125Z,100847.19
2023-04-27T04:10:48.604Z,100846.41
2023-04-27T04:13:15.036Z,100853.59
2023-04-27T04:15:43.092Z,100862.59
2023-04-27T04:18:09.580Z,100860.00
2023-04-27T04:20:36.569Z,100858.28
2023-04-27T04:23:03.037Z,100865.50
2023-04-27T04:25:29.471Z,100861.06
2023-04-27T04:27:57.123Z,100859.28
2023-04-27T04:30:23.746Z,100856.63
2023-04-27T04:32:52.042Z,100861.13
2023-04-27T04:35:18.562Z,100860.31
2023-04-27T04:37:45.438Z,100855.03
2023-04-27T04:40:13.164Z,100851.50
2023-04-27T04:42:39.786Z,100859.56
2023-04-27T04:45:08.645Z,100853.41
2023-04-27T04:47:35.770Z,100854.38
2023-04-27T04:50:04.150Z,100859.78
2023-04-27T04:52:31.175Z,100853.59
2023-04-27T04:54:57.598Z,100854.50
2023-04-27T04:57:24.009Z,100859.91
2023-04-27T04:59:52.429Z,100865.31
2023-04-27T05:02:18.915Z,100857.28
2023-04-27T05:04:45.558Z,100855.53
2023-04-27T05:07:15.253Z,100851.09
2023-04-27T05:09:42.494Z,100857.34
2023-04-27T05:12:09.137Z,100852.88
2023-04-27T05:14:35.634Z,100854.66
2023-04-27T05:17:02.147Z,100855.56
2023-04-27T05:19:29.544Z,100855.56
2023-04-27T05:21:55.967Z,100856.44
2023-04-27T05:24:23.768Z,100857.34
2023-04-27T05:26:50.246Z,100852.84
2023-04-27T05:29:16.886Z,100860.91
2023-04-27T05:31:43.469Z,100860.88
2023-04-27T05:34:10.163Z,100860.88
2023-04-27T05:36:36.648Z,100856.38
2023-04-27T05:39:03.654Z,100860.66
2023-04-27T05:41:31.512Z,100850.22
2023-04-27T05:43:57.885Z,100855.09
2023-04-27T05:46:24.336Z,100852.47
2023-04-27T05:48:50.984Z,100850.56
2023-04-27T05:51:17.409Z,100852.28
2023-04-27T05:53:43.902Z,100849.34
2023-04-27T05:56:10.308Z,100839.84
2023-04-27T05:58:38.042Z,100843.72
2023-04-27T06:01:04.767Z,100839.47
2023-04-27T06:03:34.159Z,100851.78
2023-04-27T06:06:01.366Z,100847.50
2023-04-27T06:08:28.080Z,100854.91
2023-04-27T06:10:54.553Z,100851.91
2023-04-27T06:13:21.137Z,100856.72
2023-04-27T06:15:49.071Z,100861.16
2023-04-27T06:18:16.003Z,100861.16
2023-04-27T06:20:42.491Z,100872.66
2023-04-27T06:23:08.915Z,100864.28
2023-04-27T06:25:35.432Z,100859.06
2023-04-27T06:28:01.880Z,100856.50
2023-04-27T06:30:28.386Z,100855.53
2023-04-27T06:32:56.244Z,100857.03
2023-04-27T06:35:22.701Z,100862.38
2023-04-27T06:37:49.235Z,100858.03
2023-04-27T06:40:15.867Z,100868.25
2023-04-27T06:42:42.331Z,100862.63
2023-04-27T06:45:09.412Z,100862.41
2023-04-27T06:47:35.801Z,100859.38
2023-04-27T06:50:03.980Z,100869.56
2023-04-27T06:52:31.802Z,100872.09
2023-04-27T06:54:58.218Z,100870.41
2023-04-27T06:57:24.776Z,100856.19
2023-04-27T06:59:51.303Z,100862.00
2023-04-27T07:02:17.738Z,100858.41
2023-04-27T07:04:44.243Z,100863.50
2023-04-27T07:07:11.967Z,100868.53
2023-04-27T07:09:38.373Z,100869.63
2023-04-27T07:12:04.826Z,100872.94
2023-04-27T07:14:33.460Z,100882.78
2023-04-27T07:16:59.869Z,100879.28
2023-04-27T07:19:26.322Z,100888.38
2023-04-27T07:21:52.724Z,100887.16
2023-04-27T07:24:20.411Z,100885.91
2023-04-27T07:26:46.918Z,100892.38
2023-04-27T07:29:25.602Z,100888.66
2023-04-27T07:31:53.287Z,100888.66
2023-04-27T07:34:19.750Z,100886.78
2023-04-27T07:36:46.192Z,100898.38
2023-04-27T07:39:12.874Z,100893.78
2023-04-27T07:41:40.794Z,100899.16
2023-04-27T07:44:07.276Z,100897.47
2023-04-27T07:46:33.821Z,100904.34
2023-04-27T07:49:00.323Z,100901.59
2023-04-27T07:51:26.747Z,100898.00
2023-04-27T07:53:55.744Z,100898.19
2023-04-27T07:56:22.173Z,100889.88
2023-04-27T07:58:49.923Z,100902.09
2023-04-27T08:01:16.645Z,100904.03
2023-04-27T08:03:44.189Z,100908.63
2023-04-27T08:06:11.377Z,100904.09
2023-04-27T08:08:37.903Z,100917.00
2023-04-27T08:11:04.378Z,100904.25
2023-04-27T08:13:30.781Z,100909.34
2023-04-27T08:15:58.531Z,100913.69
2023-04-27T08:18:25.024Z,100905.72
2023-04-27T08:20:51.432Z,100908.63
2023-04-27T08:23:17.843Z,100909.06
2023-04-27T08:25:44.275Z,100904.66
2023-04-27T08:28:10.680Z,100899.44
2023-04-27T08:30:37.112Z,100894.28
2023-04-27T08:33:04.981Z,100907.06
2023-04-27T08:35:31.596Z,100905.53
2023-04-27T08:37:58.028Z,100909.94
2023-04-27T08:40:24.679Z,100901.72
2023-04-27T08:42:55.673Z,100897.94
2023-04-27T08:45:22.854Z,100892.88
2023-04-27T08:47:49.370Z,100896.34
2023-04-27T08:50:17.259Z,100884.97
2023-04-27T08:52:45.284Z,100881.25
2023-04-27T08:55:13.318Z,100879.47
2023-04-27T08:57:41.724Z,100874.38
2023-04-27T09:00:09.238Z,100883.34
2023-04-27T09:02:35.852Z,100889.06
2023-04-27T09:05:02.734Z,100882.38
2023-04-27T09:07:31.786Z,100874.75
2023-04-27T09:10:02.999Z,100875.78
2023-04-27T09:12:29.450Z,100880.53
2023-04-27T09:14:56.726Z,100872.25
2023-04-27T09:17:25.400Z,100875.41
2023-04-27T09:19:52.045Z,100866.28
2023-04-27T09:22:18.462Z,100878.44
2023-04-27T09:24:51.945Z,100870.56
2023-04-27T09:27:20.154Z,100871.34
2023-04-27T09:29:46.581Z,100872.78
2023-04-27T09:32:17.169Z,100869.75
2023-04-27T09:34:44.161Z,100876.97
2023-04-27T09:37:10.732Z,100870.25
2023-04-27T09:39:38.267Z,100862.88
2023-04-27T09:42:06.181Z,100866.94
2023-04-27T09:44:33.095Z,100860.72
2023-04-27T09:47:00.159Z,100868.22
2023-04-27T09:49:27.698Z,100864.91
2023-04-27T09:51:55.598Z,100860.16
2023-04-27T09:54:25.799Z,100860.03
2023-04-27T09:57:03.512Z,100859.66
2023-04-27T09:59:42.924Z,100868.97
2023-04-27T10:02:24.036Z,100857.75
2023-04-27T10:05:09.575Z,100859.38
2023-04-27T10:07:39.376Z,100857.16
2023-04-27T10:10:06.838Z,100845.63
2023-04-27T10:12:34.834Z,100844.56
2023-04-27T10:15:12.709Z,100845.53
2023-04-27T10:17:39.395Z,100841.28
2023-04-27T10:20:07.883Z,100832.28
2023-04-27T10:22:38.803Z,100849.38
2023-04-27T10:25:17.151Z,100841.25
2023-04-27T10:27:43.707Z,100852.13
2023-04-27T10:30:17.567Z,100857.31
2023-04-27T10:32:51.216Z,100852.84
2023-04-27T10:35:18.761Z,100855.91
2023-04-27T10:37:45.275Z,100862.75
2023-04-27T10:40:13.662Z,100864.19
2023-04-27T10:42:40.710Z,100860.44
2023-04-27T10:45:08.548Z,100855.97
2023-04-27T10:47:42.991Z,100861.75
2023-04-27T10:50:13.527Z,100861.63
2023-04-27T10:52:41.288Z,100864.91
2023-04-27T10:55:15.608Z,100864.91
2023-04-27T10:57:46.710Z,100863.78
2023-04-27T11:00:16.457Z,100866.16
2023-04-27T11:02:44.476Z,100862.44
2023-04-27T11:05:17.773Z,100866.31
2023-04-27T11:07:44.452Z,100855.66
2023-04-27T11:10:15.524Z,100855.06
2023-04-27T11:12:41.995Z,100852.25
2023-04-27T11:15:09.505Z,100847.41
2023-04-27T11:17:35.885Z,100853.88
2023-04-27T11:20:04.564Z,100841.16
2023-04-27T11:22:30.979Z,100843.41
2023-04-27T11:24:57.468Z,100844.94
2023-04-27T11:27:23.831Z,100846.97
2023-04-27T11:29:50.270Z,100844.78
2023-04-27T11:32:20.357Z,100838.75
2023-04-27T11:34:49.321Z,100846.81
2023-04-27T11:37:22.022Z,100847.31
2023-04-27T11:39:48.411Z,100834.31
2023-04-27T11:42:16.436Z,100848.94
2023-04-27T11:44:42.853Z,100845.03
2023-04-27T11:47:18.763Z,100851.09
2023-04-27T11:49:47.154Z,100839.69
2023-04-27T11:52:13.914Z,100844.28
2023-04-27T11:54:47.244Z,100846.72
2023-04-27T11:57:13.648Z,100846.03
2023-04-27T11:59:40.059Z,100844.94
2023-04-27T12:02:07.112Z,100848.94
2023-04-27T12:04:33.679Z,100845.72
2023-04-27T12:07:01.196Z,100839.09
2023-04-27T12:09:27.736Z,100850.94
2023-04-27T12:11:55.716Z,100856.81
2023-04-27T12:14:22.155Z,100857.25
2023-04-27T12:16:48.621Z,100848.03
2023-04-27T12:19:15.049Z,100846.91
2023-04-27T12:21:41.450Z,100850.72
2023-04-27T12:24:07.944Z,100846.03
2023-04-27T12:26:34.406Z,100849.16
2023-04-27T12:29:02.242Z,100854.53
2023-04-27T12:31:28.701Z,100841.31
2023-04-27T12:33:55.134Z,100830.03
2023-04-27T12:36:21.600Z,100826.97
2023-04-27T12:38:48.107Z,100836.88
2023-04-27T12:41:14.590Z,100827.81
2023-04-27T12:43:41.013Z,100832.41
2023-04-27T12:46:08.878Z,100834.94
2023-04-27T12:48:35.371Z,100837.44
2023-04-27T12:51:01.862Z,100827.63
2023-04-27T12:53:28.386Z,100832.34
2023-04-27T12:55:54.776Z,100826.72
2023-04-27T12:58:21.214Z,100831.56
2023-04-27T13:00:47.708Z,100824.41
2023-04-27T13:03:15.574Z,100828.56
2023-04-27T13:05:42.253Z,100835.16
2023-04-27T13:08:08.706Z,100832.72
2023-04-27T13:10:35.161Z,100830.63
2023-04-27T13:13:01.677Z,100834.41
2023-04-27T13:15:28.050Z,100829.88
2023-04-27T13:17:54.506Z,100827.84
2023-04-27T13:20:28.704Z,100818.84
2023-04-27T13:22:55.181Z,100815.53
2023-04-27T13:25:21.626Z,100815.00
2023-04-27T13:27:48.270Z,100807.44
2023-04-27T13:30:14.818Z,100805.66
2023-04-27T13:32:41.306Z,100807.00
2023-04-27T13:35:08.631Z,100823.13
2023-04-27T13:37:36.412Z,100813.44
2023-04-27T13:40:02.883Z,100812.47
2023-04-27T13:42:31.966Z,100794.09
2023-04-27T13:44:58.306Z,100798.31
2023-04-27T13:47:24.753Z,100791.16
2023-04-27T13:49:51.170Z,100795.69
2023-04-27T13:52:17.643Z,100801.41
2023-04-27T13:54:45.397Z,100799.50
2023-04-27T13:57:11.806Z,100798.31
2023-04-27T13:59:38.205Z,100785.88
2023-04-27T14:02:04.698Z,100794.31
2023-04-27T14:04:31.335Z,100793.88
2023-04-27T14:06:57.897Z,100788.97
2023-04-27T14:09:24.302Z,100802.00
2023-04-27T14:11:56.973Z,100799.72
2023-04-27T14:14:23.884Z,100787.19
2023-04-27T14:16:50.360Z,100786.19
2023-04-27T14:19:17.103Z,100788.28
2023-04-27T14:21:43.531Z,100785.88
2023-04-27T14:24:10.038Z,100780.78
2023-04-27T14:26:36.447Z,100780.31
2023-04-27T14:29:04.377Z,100779.47
2023-04-27T14:31:30.944Z,100774.81
2023-04-27T14:33:57.363Z,100782.56
2023-04-27T14:36:23.842Z,100781.91
2023-04-27T14:38:50.226Z,100780.56
2023-04-27T14:41:16.642Z,100781.53
2023-04-27T14:43:43.313Z,100784.56
2023-04-27T14:46:20.235Z,100783.34
2023-04-27T14:48:48.364Z,100774.69
2023-04-27T14:51:15.065Z,100767.59
2023-04-27T14:53:41.855Z,100776.31
2023-04-27T14:56:08.467Z,100777.09
2023-04-27T14:58:34.920Z,100773.78
2023-04-27T15:01:02.059Z,100771.16
2023-04-27T15:03:30.290Z,100773.59
2023-04-27T15:05:56.795Z,100769.47
2023-04-27T15:08:23.379Z,100770.16
2023-04-27T15:10:49.760Z,100763.22
2023-04-27T15:13:19.427Z,100769.22
2023-04-27T15:15:45.912Z,100766.50
2023-04-27T15:18:12.535Z,100768.75
2023-04-27T15:20:40.546Z,100758.94
2023-04-27T15:23:06.961Z,100757.13
2023-04-27T15:25:33.389Z,100758.03
2023-04-27T15:27:59.812Z,100762.69
2023-04-27T15:30:26.291Z,100758.19
2023-04-27T15:32:52.965Z,100763.34
2023-04-27T15:35:19.427Z,100760.72
2023-04-27T15:37:47.206Z,100756.28
2023-04-27T15:40:13.796Z,100754.47
2023-04-27T15:42:40.232Z,100748.16
2023-04-27T15:45:09.839Z,100748.88
2023-04-27T15:47:39.645Z,100743.72
2023-04-27T15:50:06.912Z,100749.13
2023-04-27T15:52:33.371Z,100748.88
2023-04-27T15:55:01.912Z,100740.53
2023-04-27T15:57:28.337Z,100739.88
2023-04-27T15:59:54.684Z,100738.25
2023-04-27T16:02:21.508Z,100733.53
2023-04-27T16:04:48.060Z,100736.56
2023-04-27T16:07:16.485Z,100731.56
2023-04-27T16:09:42.969Z,100731.41
2023-04-27T16:12:10.840Z,100726.22
2023-04-27T16:14:37.273Z,100731.25
2023-04-27T16:17:03.697Z,100728.34
2023-04-27T16:19:30.166Z,100732.16
2023-04-27T16:21:56.654Z,100725.22
2023-04-27T16:24:24.974Z,100726.22
2023-04-27T16:26:51.447Z,100721.41
2023-04-27T16:29:19.266Z,100730.56
2023-04-27T16:31:49.470Z,100720.38
2023-04-27T16:34:15.943Z,100714.94
2023-04-27T16:36:42.417Z,100718.81
2023-04-27T16:39:09.146Z,100717.03
2023-04-27T16:41:35.518Z,100722.63
2023-04-27T16:44:01.944Z,100717.81
2023-04-27T16:46:29.851Z,100716.72
2023-04-27T16:48:57.485Z,100715.75
2023-04-27T16:51:23.921Z,100722.72
2023-04-27T16:53:50.367Z,100720.97
2023-04-27T16:56:25.239Z,100724.53
2023-04-27T16:58:51.755Z,100724.53
2023-04-27T17:01:18.258Z,100721.09
2023-04-27T17:03:46.462Z,100730.97
2023-04-27T17:06:12.942Z,100733.13
2023-04-27T17:08:39.442Z,100729.91
2023-04-27T17:11:08.040Z,100728.31
2023-04-27T17:13:34.552Z,100729.78
2023-04-27T17:16:01.064Z,100736.50
2023-04-27T17:18:27.598Z,100737.16
2023-04-27T17:20:55.333Z,100733.06
2023-04-27T17:23:21.849Z,100733.44
2023-04-27T17:25:48.263Z,100735.72
2023-04-27T17:28:14.694Z,100736.28
2023-04-27T17:30:41.126Z,100745.66
2023-04-27T17:33:07.617Z,100745.94
2023-04-27T17:35:34.093Z,100735.38
2023-04-27T17:38:01.948Z,100747.22
2023-04-27T17:40:28.438Z,100751.97
2023-04-27T17:42:54.829Z,100745.19
2023-04-27T17:45:21.453Z,100741.84
2023-04-27T17:47:48.737Z,100741.19
2023-04-27T17:50:15.207Z,100745.19
2023-04-27T17:52:41.583Z,100745.38
2023-04-27T17:55:09.567Z,100746.47
2023-04-27T17:57:35.946Z,100742.28
2023-04-27T18:00:02.400Z,100750.69
2023-04-27T18:02:36.386Z,100748.22
2023-04-27T18:05:03.055Z,100755.56
2023-04-27T18:07:29.512Z,100751.31
2023-04-27T18:09:55.937Z,100761.50
2023-04-27T18:12:23.761Z,100760.72
2023-04-27T18:14:50.155Z,100757.41
2023-04-27T18:17:16.690Z,100752.22
2023-04-27T18:19:43.160Z,100763.25
2023-04-27T18:22:09.538Z,100769.81
2023-04-27T18:24:36.002Z,100768.19
2023-04-27T18:27:02.407Z,100766.47
2023-04-27T18:29:30.123Z,100774.75
2023-04-27T18:31:56.512Z,100769.50
2023-04-27T18:34:22.952Z,100770.59
2023-04-27T18:36:51.584Z,100776.16
2023-04-27T18:39:18.689Z,100779.09
2023-04-27T18:41:45.122Z,100778.25
2023-04-27T18:44:11.698Z,100788.34
2023-04-27T18:46:39.384Z,100783.13
2023-04-27T18:49:05.844Z,100782.44
2023-04-27T18:51:32.480Z,100787.13
2023-04-27T18:53:58.940Z,100789.09
2023-04-27T18:56:25.364Z,100785.72
2023-04-27T18:58:51.764Z,100790.38
2023-04-27T19:01:20.131Z,100786.88
2023-04-27T19:03:48.155Z,100777.09
2023-04-27T19:06:14.823Z,100778.97
2023-04-27T19:08:41.351Z,100770.00
2023-04-27T19:11:07.787Z,100775.41
2023-04-27T19:13:34.178Z,100772.84
2023-04-27T19:16:00.838Z,100766.63
2023-04-27T19:18:27.541Z,100764.88
2023-04-27T19:20:55.524Z,100767.69
2023-04-27T19:23:21.953Z,100762.38
2023-04-27T19:25:48.431Z,100761.63
2023-04-27T19:28:15.936Z,100759.91
2023-04-27T19:30:42.518Z,100767.25
2023-04-27T19:33:09.223Z,100773.63
2023-04-27T19:35:35.780Z,100772.88
2023-04-27T19:38:03.918Z,100776.53
2023-04-27T19:40:30.576Z,100773.94
2023-04-27T19:42:57.335Z,100774.09
2023-04-27T19:45:23.797Z,100772.28
2023-04-27T19:47:50.411Z,100771.44
2023-04-27T19:50:17.334Z,100771.50
2023-04-27T19:52:43.892Z,100769.75
2023-04-27T19:55:12.126Z,100773.38
2023-04-27T19:57:40.904Z,100773.38
2023-04-27T20:00:08.460Z,100768.72
2023-04-27T20:02:39.527Z,100780.34
2023-04-27T20:05:06.861Z,100780.25
2023-04-27T20:07:33.499Z,100784.81
2023-04-27T20:09:59.958Z,100779.53
2023-04-27T20:12:47.439Z,100788.63
2023-04-27T20:15:14.322Z,100786.03
2023-04-27T20:17:40.826Z,100780.69
2023-04-27T20:20:08.527Z,100779.88
2023-04-27T20:22:34.958Z,100779.03
2023-04-27T20:25:01.468Z,100776.41
2023-04-27T20:27:29.343Z,100775.59
2023-04-27T20:29:55.770Z,100783.72
2023-04-27T20:32:22.178Z,100774.84
2023-04-27T20:34:48.588Z,100778.56
2023-04-27T20:37:15.001Z,100776.81
2023-04-27T20:39:41.466Z,100771.44
2023-04-27T20:42:07.866Z,100770.72
2023-04-27T20:44:35.588Z,100767.06
2023-04-27T20:47:01.985Z,100771.75
2023-04-27T20:49:35.109Z,100770.88
2023-04-27T20:52:02.199Z,100772.78
2023-04-27T20:54:28.832Z,100768.34
2023-04-27T20:56:55.264Z,100771.94
2023-04-27T20:59:21.711Z,100767.50
2023-04-27T21:01:49.385Z,100760.41
2023-04-27T21:04:16.169Z,100760.50
2023-04-27T21:06:42.933Z,100760.59
2023-04-27T21:09:09.377Z,100755.22
2023-04-27T21:11:35.810Z,100754.50
2023-04-27T21:14:02.247Z,100752.78
2023-04-27T21:16:28.671Z,100750.97
2023-04-27T21:18:56.429Z,100751.97
2023-04-27T21:21:23.058Z,100756.56
2023-04-27T21:23:54.331Z,100741.34
2023-04-27T21:26:27.146Z,100749.53
2023-04-27T21:28:53.557Z,100749.47
2023-04-27T21:31:20.765Z,100750.44
2023-04-27T21:33:47.368Z,100759.50
2023-04-27T21:36:15.134Z,100747.84
2023-04-27T21:38:41.820Z,100753.28
2023-04-27T21:41:08.258Z,100756.94
2023-04-27T21:43:34.760Z,100749.78
2023-04-27T21:46:01.174Z,100739.97
2023-04-27T21:48:27.572Z,100746.38
2023-04-27T21:50:53.992Z,100750.88
2023-04-27T21:53:21.695Z,100757.22
2023-04-27T21:55:48.126Z,100754.47
2023-04-27T21:58:14.592Z,100745.50
2023-04-27T22:00:40.975Z,100750.91
2023-04-27T22:03:07.748Z,100748.22
2023-04-27T22:05:34.522Z,100746.50
2023-04-27T22:08:00.975Z,100753.69
2023-04-27T22:10:28.853Z,100755.44
2023-04-27T22:12:55.720Z,100750.97
2023-04-27T22:15:23.264Z,100742.00
2023-04-27T22:17:49.886Z,100748.34
2023-04-27T22:20:16.736Z,100738.56
2023-04-27T22:22:43.604Z,100745.84
2023-04-27T22:25:11.138Z,100737.75
2023-04-27T22:27:44.994Z,100743.16
2023-04-27T22:30:13.955Z,100744.94
2023-04-27T22:32:40.578Z,100743.28
2023-04-27T22:35:12.940Z,100738.81
2023-04-27T22:37:42.283Z,100741.56
2023-04-27T22:40:09.712Z,100738.00
2023-04-27T22:42:36.124Z,100733.53
2023-04-27T22:45:04.446Z,100738.09
2023-04-27T22:47:30.970Z,100733.63
2023-04-27T22:49:57.385Z,100731.78
2023-04-27T22:52:23.823Z,100735.38
2023-04-27T22:54:50.255Z,100728.25
2023-04-27T22:57:16.928Z,100730.88
2023-04-27T22:59:43.337Z,100719.13
2023-04-27T23:02:12.133Z,100720.06
2023-04-27T23:04:38.604Z,100723.63
2023-04-27T23:07:05.016Z,100708.34
2023-04-27T23:09:31.410Z,100714.59
2023-04-27T23:11:57.950Z,100717.28
2023-04-27T23:14:24.337Z,100711.88
2023-04-27T23:16:50.925Z,100700.19
2023-04-27T23:19:18.661Z,100699.28
2023-04-27T23:21:45.030Z,100702.91
2023-04-27T23:24:11.502Z,100695.69
2023-04-27T23:26:38.143Z,100691.19
2023-04-27T23:29:04.637Z,100679.53
2023-04-27T23:31:31.176Z,100680.31
2023-04-27T23:33:57.734Z,100674.94
2023-04-27T23:36:25.438Z,100671.34
2023-04-27T23:38:51.930Z,100670.50
2023-04-27T23:41:18.312Z,100668.75
2023-04-27T23:43:44.917Z,100672.34
2023-04-27T23:46:11.341Z,100661.63
2023-04-27T23:48:37.835Z,100666.16
2023-04-27T23:51:05.009Z,100645.56
2023-04-27T23:53:32.970Z,100650.97
2023-04-27T23:55:59.622Z,100649.22
2023-04-27T23:58:26.291Z,100637.63
